sensor_id;sensor_type;location;lat;lon;timestamp;pressure;altitude;pressure_sealevel;temperature;humidity
8585;BME280;7180;52.742;11.420;2023-05-22T00:01:05;101097.53;;;15.37;82.28
8585;BME280;7180;52.742;11.420;2023-05-22T00:03:31;101111.84;;;15.34;82.59
8585;BME280;7180;52.742;11.420;2023-05-22T00:05:57;101118.09;;;15.33;82.76
8585;BME280;7180;52.742;11.420;2023-05-22T00:08:24;101115.03;;;15.27;82.99
8585;BME280;7180;52.742;11.420;2023-05-22T00:10:49;101111.81;;;15.22;83.34
8585;BME280;7180;52.742;11.420;2023-05-22T00:13:15;101125.19;;;15.20;83.90
8585;BME280;7180;52.742;11.420;2023-05-22T00:15:40;101130.91;;;15.14;83.91
8585;BME280;7180;52.742;11.420;2023-05-22T00:18:05;101136.41;;;15.11;84.16
8585;BME280;7180;52.742;11.420;2023-05-22T00:20:32;101133.13;;;15.08;84.46
8585;BME280;7180;52.742;11.420;2023-05-22T00:23:05;101140.44;;;15.04;84.63
8585;BME280;7180;52.742;11.420;2023-05-22T00:25:37;101139.78;;;15.01;84.80
8585;BME280;7180;52.742;11.420;2023-05-22T00:28:02;101141.06;;;14.95;84.99
8585;BME280;7180;52.742;11.420;2023-05-22T00:30:28;101146.34;;;14.95;85.22
8585;BME280;7180;52.742;11.420;2023-05-22T00:32:54;101135.22;;;14.90;85.69
8585;BME280;7180;52.742;11.420;2023-05-22T00:35:20;101134.81;;;14.84;85.93
8585;BME280;7180;52.742;11.420;2023-05-22T00:37:45;101141.91;;;14.83;86.10
8585;BME280;7180;52.742;11.420;2023-05-22T00:40:12;101144.84;;;14.79;86.17
8585;BME280;7180;52.742;11.420;2023-05-22T00:42:37;101137.97;;;14.76;86.48
8585;BME280;7180;52.742;11.420;2023-05-22T00:45:04;101137.00;;;14.77;86.17
8585;BME280;7180;52.742;11.420;2023-05-22T00:47:30;101124.19;;;14.71;86.50
8585;BME280;7180;52.742;11.420;2023-05-22T00:49:57;101126.00;;;14.71;86.53
8585;BME280;7180;52.742;11.420;2023-05-22T00:52:22;101118.34;;;14.66;86.68
8585;BME280;7180;52.742;11.420;2023-05-22T00:54:49;101113.47;;;14.60;86.61
8585;BME280;7180;52.742;11.420;2023-05-22T00:57:17;101120.13;;;14.53;86.68
8585;BME280;7180;52.742;11.420;2023-05-22T00:59:44;101129.31;;;14.47;87.01
8585;BME280;7180;52.742;11.420;2023-05-22T01:02:09;101141.97;;;14.42;87.01
8585;BME280;7180;52.742;11.420;2023-05-22T01:04:35;101149.28;;;14.39;87.61
8585;BME280;7180;52.742;11.420;2023-05-22T01:07:01;101157.22;;;14.39;87.53
8585;BME280;7180;52.742;11.420;2023-05-22T01:09:27;101154.03;;;14.34;87.91
8585;BME280;7180;52.742;11.420;2023-05-22T01:12:19;101156.06;;;14.43;88.24
8585;BME280;7180;52.742;11.420;2023-05-22T01:15:00;101154.81;;;14.48;88.28
8585;BME280;7180;52.742;11.420;2023-05-22T01:17:39;101121.56;;;14.71;87.48
8585;BME280;7180;52.742;11.420;2023-05-22T01:20:24;101101.19;;;14.59;87.22
8585;BME280;7180;52.742;11.420;2023-05-22T01:28:50;101136.25;;;14.36;88.09
8585;BME280;7180;52.742;11.420;2023-05-22T01:31:24;101149.47;;;14.36;88.35
8585;BME280;7180;52.742;11.420;2023-05-22T01:33:52;101159.56;;;14.43;88.83
8585;BME280;7180;52.742;11.420;2023-05-22T01:36:19;101150.66;;;14.44;88.70
8585;BME280;7180;52.742;11.420;2023-05-22T01:38:49;101144.56;;;14.44;88.71
8585;BME280;7180;52.742;11.420;2023-05-22T01:41:16;101139.16;;;14.45;88.67
8585;BME280;7180;52.742;11.420;2023-05-22T01:43:42;101141.06;;;14.43;88.79
8585;BME280;7180;52.742;11.420;2023-05-22T01:46:07;101135.75;;;14.43;88.86
8585;BME280;7180;52.742;11.420;2023-05-22T01:48:34;101130.97;;;14.36;89.25
8585;BME280;7180;52.742;11.420;2023-05-22T01:51:03;101140.28;;;14.41;89.19
8585;BME280;7180;52.742;11.420;2023-05-22T01:53:33;101140.72;;;14.48;88.93
8585;BME280;7180;52.742;11.420;2023-05-22T01:56:15;101111.63;;;14.48;88.94
8585;BME280;7180;52.742;11.420;2023-05-22T01:59:03;101102.41;;;14.41;88.78
8585;BME280;7180;52.742;11.420;2023-05-22T02:01:35;101111.31;;;14.40;88.84
8585;BME280;7180;52.742;11.420;2023-05-22T02:04:02;101109.69;;;14.37;89.02
8585;BME280;7180;52.742;11.420;2023-05-22T02:06:31;101112.56;;;14.34;89.29
8585;BME280;7180;52.742;11.420;2023-05-22T02:08:58;101117.84;;;14.34;89.20
8585;BME280;7180;52.742;11.420;2023-05-22T02:11:25;101114.56;;;14.31;89.30
8585;BME280;7180;52.742;11.420;2023-05-22T02:13:52;101116.22;;;14.32;89.37
8585;BME280;7180;52.742;11.420;2023-05-22T02:16:18;101112.44;;;14.36;89.49
8585;BME280;7180;52.742;11.420;2023-05-22T02:18:45;101091.78;;;14.28;89.30
8585;BME280;7180;52.742;11.420;2023-05-22T02:21:11;101098.97;;;14.26;89.35
8585;BME280;7180;52.742;11.420;2023-05-22T02:23:36;101097.06;;;14.28;89.39
8585;BME280;7180;52.742;11.420;2023-05-22T02:26:02;101090.25;;;14.24;89.46
8585;BME280;7180;52.742;11.420;2023-05-22T02:28:28;101089.06;;;14.16;89.38
8585;BME280;7180;52.742;11.420;2023-05-22T02:30:54;101085.13;;;14.09;89.65
8585;BME280;7180;52.742;11.420;2023-05-22T02:33:19;101101.94;;;14.08;89.88
8585;BME280;7180;52.742;11.420;2023-05-22T02:35:44;101104.00;;;14.03;90.08
8585;BME280;7180;52.742;11.420;2023-05-22T02:38:10;101109.31;;;14.03;90.42
8585;BME280;7180;52.742;11.420;2023-05-22T02:40:36;101100.06;;;13.96;90.69
8585;BME280;7180;52.742;11.420;2023-05-22T02:43:01;101129.63;;;14.02;90.76
8585;BME280;7180;52.742;11.420;2023-05-22T02:45:27;101114.81;;;14.00;90.75
8585;BME280;7180;52.742;11.420;2023-05-22T02:47:52;101096.50;;;13.97;90.80
8585;BME280;7180;52.742;11.420;2023-05-22T02:50:17;101100.06;;;13.96;91.00
8585;BME280;7180;52.742;11.420;2023-05-22T02:52:43;101095.19;;;13.90;91.00
8585;BME280;7180;52.742;11.420;2023-05-22T02:55:09;101103.41;;;13.85;91.32
8585;BME280;7180;52.742;11.420;2023-05-22T02:57:34;101097.69;;;13.79;91.32
8585;BME280;7180;52.742;11.420;2023-05-22T03:00:00;101115.22;;;13.80;91.69
8585;BME280;7180;52.742;11.420;2023-05-22T03:02:25;101110.34;;;13.74;91.63
8585;BME280;7180;52.742;11.420;2023-05-22T03:04:52;101112.78;;;13.77;92.10
8585;BME280;7180;52.742;11.420;2023-05-22T03:07:17;101117.22;;;13.76;92.20
8585;BME280;7180;52.742;11.420;2023-05-22T03:09:44;101125.41;;;13.86;92.55
8585;BME280;7180;52.742;11.420;2023-05-22T03:12:09;101109.34;;;13.89;92.26
8585;BME280;7180;52.742;11.420;2023-05-22T03:14:35;101097.63;;;13.93;92.09
8585;BME280;7180;52.742;11.420;2023-05-22T03:17:00;101075.44;;;13.95;91.84
8585;BME280;7180;52.742;11.420;2023-05-22T03:19:26;101070.88;;;13.97;91.38
8585;BME280;7180;52.742;11.420;2023-05-22T03:21:51;101063.63;;;14.01;91.44
8585;BME280;7180;52.742;11.420;2023-05-22T03:24:16;101059.97;;;14.16;91.15
8585;BME280;7180;52.742;11.420;2023-05-22T03:26:42;101018.91;;;14.37;90.07
8585;BME280;7180;52.742;11.420;2023-05-22T03:29:07;100979.88;;;14.40;89.02
8585;BME280;7180;52.742;11.420;2023-05-22T03:31:33;100961.25;;;14.42;88.91
8585;BME280;7180;52.742;11.420;2023-05-22T03:33:59;100961.03;;;14.45;88.53
8585;BME280;7180;52.742;11.420;2023-05-22T03:36:24;100961.03;;;14.45;88.50
8585;BME280;7180;52.742;11.420;2023-05-22T03:38:50;100964.63;;;14.44;88.14
8585;BME280;7180;52.742;11.420;2023-05-22T03:41:16;100970.34;;;14.50;88.13
8585;BME280;7180;52.742;11.420;2023-05-22T03:43:41;100983.25;;;14.55;88.15
8585;BME280;7180;52.742;11.420;2023-05-22T03:46:06;100982.84;;;14.61;88.16
8585;BME280;7180;52.742;11.420;2023-05-22T03:48:32;100962.94;;;14.68;87.60
8585;BME280;7180;52.742;11.420;2023-05-22T03:50:58;100964.41;;;14.72;87.28
8585;BME280;7180;52.742;11.420;2023-05-22T03:53:24;100949.28;;;14.74;87.08
8585;BME280;7180;52.742;11.420;2023-05-22T03:55:49;100956.47;;;14.85;86.92
8585;BME280;7180;52.742;11.420;2023-05-22T03:58:14;100925.22;;;14.90;86.51
8585;BME280;7180;52.742;11.420;2023-05-22T04:00:39;100936.44;;;14.93;86.39
8585;BME280;7180;52.742;11.420;2023-05-22T04:03:06;100921.78;;;15.00;85.71
8585;BME280;7180;52.742;11.420;2023-05-22T04:05:36;100909.41;;;15.01;85.97
8585;BME280;7180;52.742;11.420;2023-05-22T04:08:02;100916.91;;;15.07;85.90
8585;BME280;7180;52.742;11.420;2023-05-22T04:10:27;100911.09;;;15.14;85.56
8585;BME280;7180;52.742;11.420;2023-05-22T04:12:52;100897.84;;;15.14;85.13
8585;BME280;7180;52.742;11.420;2023-05-22T04:15:18;100902.78;;;15.19;85.15
8585;BME280;7180;52.742;11.420;2023-05-22T04:17:43;100895.47;;;15.22;85.29
8585;BME280;7180;52.742;11.420;2023-05-22T04:20:08;100900.44;;;15.27;85.12
8585;BME280;7180;52.742;11.420;2023-05-22T04:22:35;100882.28;;;15.33;84.83
8585;BME280;7180;52.742;11.420;2023-05-22T04:25:00;100856.16;;;15.29;84.21
8585;BME280;7180;52.742;11.420;2023-05-22T04:27:25;100866.16;;;15.36;84.26
8585;BME280;7180;52.742;11.420;2023-05-22T04:29:53;100848.16;;;15.41;84.02
8585;BME280;7180;52.742;11.420;2023-05-22T04:32:19;100847.69;;;15.47;83.68
8585;BME280;7180;52.742;11.420;2023-05-22T04:34:47;100847.25;;;15.53;83.72
8585;BME280;7180;52.742;11.420;2023-05-22T04:37:13;100831.72;;;15.60;83.21
8585;BME280;7180;52.742;11.420;2023-05-22T04:39:43;100822.50;;;15.77;82.75
8585;BME280;7180;52.742;11.420;2023-05-22T04:42:08;100809.25;;;15.88;82.16
8585;BME280;7180;52.742;11.420;2023-05-22T04:44:33;100792.41;;;16.00;81.88
8585;BME280;7180;52.742;11.420;2023-05-22T04:47:00;100804.47;;;16.04;81.99
8585;BME280;7180;52.742;11.420;2023-05-22T04:49:25;100805.06;;;16.18;81.86
8585;BME280;7180;52.742;11.420;2023-05-22T04:51:52;100793.41;;;16.32;81.59
8585;BME280;7180;52.742;11.420;2023-05-22T04:54:19;100761.66;;;16.41;80.88
8585;BME280;7180;52.742;11.420;2023-05-22T04:56:44;100748.03;;;16.57;80.31
8585;BME280;7180;52.742;11.420;2023-05-22T04:59:09;100714.78;;;16.74;79.73
8585;BME280;7180;52.742;11.420;2023-05-22T05:01:35;100689.00;;;16.96;78.71
8585;BME280;7180;52.742;11.420;2023-05-22T05:04:01;100706.72;;;17.27;78.53
8585;BME280;7180;52.742;11.420;2023-05-22T05:06:27;100702.44;;;17.56;78.28
8585;BME280;7180;52.742;11.420;2023-05-22T05:08:52;100659.06;;;17.86;77.18
8585;BME280;7180;52.742;11.420;2023-05-22T05:11:18;100660.63;;;18.28;77.09
8585;BME280;7180;52.742;11.420;2023-05-22T05:13:43;100610.25;;;18.55;75.92
8585;BME280;7180;52.742;11.420;2023-05-22T05:16:08;100528.09;;;18.70;74.42
8585;BME280;7180;52.742;11.420;2023-05-22T05:18:34;100476.72;;;18.87;73.26
8585;BME280;7180;52.742;11.420;2023-05-22T05:20:59;100459.25;;;19.12;72.21
8585;BME280;7180;52.742;11.420;2023-05-22T05:23:24;100470.19;;;19.73;71.63
8585;BME280;7180;52.742;11.420;2023-05-22T05:25:50;100454.56;;;20.13;70.93
8585;BME280;7180;52.742;11.420;2023-05-22T05:28:15;100280.00;;;20.06;68.78
8585;BME280;7180;52.742;11.420;2023-05-22T05:30:40;100314.16;;;20.02;68.85
8585;BME280;7180;52.742;11.420;2023-05-22T05:33:06;100322.81;;;20.47;68.23
8585;BME280;7180;52.742;11.420;2023-05-22T05:35:31;100334.38;;;20.90;67.88
8585;BME280;7180;52.742;11.420;2023-05-22T05:37:56;100218.56;;;21.23;66.11
8585;BME280;7180;52.742;11.420;2023-05-22T05:40:22;100132.72;;;21.64;64.18
8585;BME280;7180;52.742;11.420;2023-05-22T05:42:48;100195.72;;;21.99;64.69
8585;BME280;7180;52.742;11.420;2023-05-22T05:45:13;100108.28;;;22.98;62.30
8585;BME280;7180;52.742;11.420;2023-05-22T05:47:39;100013.44;;;22.99;61.28
8585;BME280;7180;52.742;11.420;2023-05-22T05:50:04;100021.94;;;22.88;61.19
8585;BME280;7180;52.742;11.420;2023-05-22T05:52:30;99920.88;;;22.59;60.32
8585;BME280;7180;52.742;11.420;2023-05-22T05:54:57;100039.94;;;22.57;61.66
8585;BME280;7180;52.742;11.420;2023-05-22T05:57:22;99978.09;;;22.44;61.25
8585;BME280;7180;52.742;11.420;2023-05-22T05:59:47;100046.84;;;22.74;61.75
8585;BME280;7180;52.742;11.420;2023-05-22T06:02:13;99907.59;;;22.81;59.70
8585;BME280;7180;52.742;11.420;2023-05-22T06:04:38;99939.09;;;22.19;61.23
8585;BME280;7180;52.742;11.420;2023-05-22T06:07:03;99986.72;;;22.09;61.76
8585;BME280;7180;52.742;11.420;2023-05-22T06:09:29;100011.38;;;22.72;61.26
8585;BME280;7180;52.742;11.420;2023-05-22T06:11:54;99907.59;;;22.81;59.73
8585;BME280;7180;52.742;11.420;2023-05-22T06:14:19;99934.38;;;22.66;60.09
8585;BME280;7180;52.742;11.420;2023-05-22T06:16:44;99989.75;;;22.88;60.93
8585;BME280;7180;52.742;11.420;2023-05-22T06:19:10;99944.66;;;23.64;59.40
8585;BME280;7180;52.742;11.420;2023-05-22T06:21:35;99889.94;;;23.87;58.22
8585;BME280;7180;52.742;11.420;2023-05-22T06:24:00;99828.53;;;23.06;58.85
8585;BME280;7180;52.742;11.420;2023-05-22T06:26:26;99715.38;;;23.52;56.54
8585;BME280;7180;52.742;11.420;2023-05-22T06:28:51;99600.72;;;23.67;54.77
8585;BME280;7180;52.742;11.420;2023-05-22T06:31:18;99715.09;;;23.96;55.78
8585;BME280;7180;52.742;11.420;2023-05-22T06:33:43;99616.59;;;24.31;54.21
8585;BME280;7180;52.742;11.420;2023-05-22T06:36:08;99711.34;;;24.12;55.41
8585;BME280;7180;52.742;11.420;2023-05-22T06:38:35;99639.06;;;24.23;54.40
8585;BME280;7180;52.742;11.420;2023-05-22T06:41:02;99572.47;;;24.06;53.54
8585;BME280;7180;52.742;11.420;2023-05-22T06:43:27;99601.13;;;23.64;54.27
8585;BME280;7180;52.742;11.420;2023-05-22T06:45:53;99518.16;;;23.70;53.43
8585;BME280;7180;52.742;11.420;2023-05-22T06:48:18;99576.66;;;23.25;54.73
8585;BME280;7180;52.742;11.420;2023-05-22T06:50:43;99618.88;;;23.65;54.26
8585;BME280;7180;52.742;11.420;2023-05-22T06:53:09;99512.28;;;22.70;54.63
8585;BME280;7180;52.742;11.420;2023-05-22T06:55:35;99617.47;;;23.70;54.26
8585;BME280;7180;52.742;11.420;2023-05-22T06:58:00;99579.03;;;23.35;54.56
8585;BME280;7180;52.742;11.420;2023-05-22T07:00:26;99626.81;;;23.25;55.08
8585;BME280;7180;52.742;11.420;2023-05-22T07:02:51;99672.81;;;23.07;55.93
8585;BME280;7180;52.742;11.420;2023-05-22T07:05:16;99705.44;;;23.46;55.62
8585;BME280;7180;52.742;11.420;2023-05-22T07:07:42;99704.03;;;23.78;55.05
8585;BME280;7180;52.742;11.420;2023-05-22T07:10:08;99722.44;;;23.81;55.45
8585;BME280;7180;52.742;11.420;2023-05-22T07:12:33;99727.78;;;23.53;55.70
8585;BME280;7180;52.742;11.420;2023-05-22T07:14:58;99627.69;;;23.87;54.54
8585;BME280;7180;52.742;11.420;2023-05-22T07:17:24;99590.84;;;23.40;54.30
8585;BME280;7180;52.742;11.420;2023-05-22T07:19:50;99682.28;;;23.24;55.42
8585;BME280;7180;52.742;11.420;2023-05-22T07:22:15;99760.19;;;23.80;55.44
8585;BME280;7180;52.742;11.420;2023-05-22T07:24:40;99736.97;;;23.93;55.39
8585;BME280;7180;52.742;11.420;2023-05-22T07:27:06;99813.09;;;24.28;55.43
8585;BME280;7180;52.742;11.420;2023-05-22T07:29:31;99738.63;;;24.97;53.74
8585;BME280;7180;52.742;11.420;2023-05-22T07:31:56;99674.53;;;25.07;52.99
8585;BME280;7180;52.742;11.420;2023-05-22T07:34:21;99595.06;;;25.37;52.15
8585;BME280;7180;52.742;11.420;2023-05-22T07:36:47;99582.66;;;24.90;53.06
8585;BME280;7180;52.742;11.420;2023-05-22T07:39:13;99541.38;;;24.37;53.03
8585;BME280;7180;52.742;11.420;2023-05-22T07:41:38;99697.63;;;24.07;54.54
8585;BME280;7180;52.742;11.420;2023-05-22T07:44:04;99675.63;;;23.90;54.54
8585;BME280;7180;52.742;11.420;2023-05-22T07:46:29;99686.06;;;23.51;55.37
8585;BME280;7180;52.742;11.420;2023-05-22T07:48:55;99789.00;;;23.64;55.99
8585;BME280;7180;52.742;11.420;2023-05-22T07:51:20;99852.25;;;23.38;57.19
8585;BME280;7180;52.742;11.420;2023-05-22T07:53:45;99856.16;;;23.21;57.49
8585;BME280;7180;52.742;11.420;2023-05-22T07:56:11;99903.41;;;23.07;58.46
8585;BME280;7180;52.742;11.420;2023-05-22T07:58:36;99925.63;;;23.01;58.65
8585;BME280;7180;52.742;11.420;2023-05-22T08:01:02;99949.94;;;23.00;58.88
8585;BME280;7180;52.742;11.420;2023-05-22T08:03:29;99998.72;;;22.81;59.42
8585;BME280;7180;52.742;11.420;2023-05-22T08:05:54;100045.31;;;23.31;59.23
8585;BME280;7180;52.742;11.420;2023-05-22T08:08:19;100053.13;;;23.55;59.19
8585;BME280;7180;52.742;11.420;2023-05-22T08:10:45;100097.25;;;23.53;59.75
8585;BME280;7180;52.742;11.420;2023-05-22T08:13:10;100000.75;;;23.95;57.73
8585;BME280;7180;52.742;11.420;2023-05-22T08:15:37;100044.69;;;23.73;58.51
8585;BME280;7180;52.742;11.420;2023-05-22T08:18:02;99978.03;;;23.62;57.86
8585;BME280;7180;52.742;11.420;2023-05-22T08:20:27;100071.25;;;23.53;59.39
8585;BME280;7180;52.742;11.420;2023-05-22T08:22:52;100091.88;;;23.82;59.50
8585;BME280;7180;52.742;11.420;2023-05-22T08:25:18;100069.66;;;23.44;59.65
8585;BME280;7180;52.742;11.420;2023-05-22T08:27:43;100068.91;;;23.80;58.68
8585;BME280;7180;52.742;11.420;2023-05-22T08:30:09;100060.53;;;23.16;59.90
8585;BME280;7180;52.742;11.420;2023-05-22T08:32:34;100170.75;;;23.81;60.41
8585;BME280;7180;52.742;11.420;2023-05-22T08:35:00;99938.56;;;22.83;59.07
8585;BME280;7180;52.742;11.420;2023-05-22T08:37:25;100169.94;;;23.43;60.45
8585;BME280;7180;52.742;11.420;2023-05-22T08:39:51;100078.34;;;23.32;59.89
8585;BME280;7180;52.742;11.420;2023-05-22T08:42:16;100105.31;;;23.67;59.61
8585;BME280;7180;52.742;11.420;2023-05-22T08:44:41;100135.75;;;23.75;59.68
8585;BME280;7180;52.742;11.420;2023-05-22T08:47:07;100013.31;;;23.44;58.89
8585;BME280;7180;52.742;11.420;2023-05-22T08:49:35;100144.91;;;23.65;60.31
8585;BME280;7180;52.742;11.420;2023-05-22T08:52:11;100088.47;;;23.74;59.31
8585;BME280;7180;52.742;11.420;2023-05-22T08:54:40;99950.94;;;23.28;58.71
8585;BME280;7180;52.742;11.420;2023-05-22T08:57:07;100108.34;;;23.50;59.67
8585;BME280;7180;52.742;11.420;2023-05-22T08:59:35;100041.34;;;23.42;59.09
8585;BME280;7180;52.742;11.420;2023-05-22T09:02:00;100117.59;;;23.47;60.01
8585;BME280;7180;52.742;11.420;2023-05-22T09:04:28;100148.78;;;23.26;61.09
8585;BME280;7180;52.742;11.420;2023-05-22T09:06:53;100122.31;;;23.45;59.96
8585;BME280;7180;52.742;11.420;2023-05-22T09:09:19;100093.69;;;23.38;59.91
8585;BME280;7180;52.742;11.420;2023-05-22T09:15:10;100098.53;;;23.42;60.47
8585;BME280;7180;52.742;11.420;2023-05-22T09:17:39;100087.34;;;23.53;59.87
8585;BME280;7180;52.742;11.420;2023-05-22T09:20:05;100039.09;;;23.75;58.97
8585;BME280;7180;52.742;11.420;2023-05-22T09:22:36;100031.34;;;23.65;58.92
8585;BME280;7180;52.742;11.420;2023-05-22T09:25:02;100061.50;;;23.82;58.91
8585;BME280;7180;52.742;11.420;2023-05-22T09:27:28;100091.59;;;23.92;59.24
8585;BME280;7180;52.742;11.420;2023-05-22T09:29:55;100096.66;;;23.87;59.44
8585;BME280;7180;52.742;11.420;2023-05-22T09:32:23;100040.28;;;24.01;58.45
8585;BME280;7180;52.742;11.420;2023-05-22T09:34:49;99945.00;;;23.97;57.96
8585;BME280;7180;52.742;11.420;2023-05-22T09:37:16;99917.03;;;24.06;57.24
8585;BME280;7180;52.742;11.420;2023-05-22T09:39:46;99982.84;;;24.17;57.79
8585;BME280;7180;52.742;11.420;2023-05-22T09:42:14;99943.84;;;24.21;57.57
8585;BME280;7180;52.742;11.420;2023-05-22T09:44:41;99960.75;;;24.21;57.86
8585;BME280;7180;52.742;11.420;2023-05-22T09:47:08;99933.06;;;24.42;56.99
8585;BME280;7180;52.742;11.420;2023-05-22T09:49:41;99852.84;;;24.39;56.23
8585;BME280;7180;52.742;11.420;2023-05-22T09:52:07;99926.13;;;24.54;57.02
8585;BME280;7180;52.742;11.420;2023-05-22T09:54:33;99923.31;;;24.62;56.82
8585;BME280;7180;52.742;11.420;2023-05-22T09:56:59;99964.97;;;24.73;57.21
8585;BME280;7180;52.742;11.420;2023-05-22T09:59:26;99941.53;;;24.66;57.19
8585;BME280;7180;52.742;11.420;2023-05-22T10:01:54;99883.00;;;24.62;56.62
8585;BME280;7180;52.742;11.420;2023-05-22T10:04:21;99872.03;;;24.63;56.54
8585;BME280;7180;52.742;11.420;2023-05-22T10:06:50;99962.44;;;24.92;57.25
8585;BME280;7180;52.742;11.420;2023-05-22T10:09:16;99939.16;;;25.06;56.59
8585;BME280;7180;52.742;11.420;2023-05-22T10:11:42;99835.69;;;25.02;55.85
8585;BME280;7180;52.742;11.420;2023-05-22T10:14:09;99769.25;;;25.02;55.04
8585;BME280;7180;52.742;11.420;2023-05-22T10:16:35;99824.34;;;25.13;55.63
8585;BME280;7180;52.742;11.420;2023-05-22T10:19:02;99848.38;;;25.21;55.76
8585;BME280;7180;52.742;11.420;2023-05-22T10:21:28;99766.59;;;25.15;54.67
8585;BME280;7180;52.742;11.420;2023-05-22T10:23:54;99789.16;;;25.14;55.21
8585;BME280;7180;52.742;11.420;2023-05-22T10:26:21;99685.31;;;25.26;53.81
8585;BME280;7180;52.742;11.420;2023-05-22T10:28:56;99706.19;;;25.18;54.31
8585;BME280;7180;52.742;11.420;2023-05-22T10:31:44;99747.81;;;25.28;54.88
8585;BME280;7180;52.742;11.420;2023-05-22T10:34:14;99631.47;;;25.33;53.69
8585;BME280;7180;52.742;11.420;2023-05-22T10:40:08;99623.47;;;25.52;53.40
8585;BME280;7180;52.742;11.420;2023-05-22T10:42:36;99617.47;;;25.50;52.87
8585;BME280;7180;52.742;11.420;2023-05-22T10:45:02;99581.38;;;25.71;52.21
8585;BME280;7180;52.742;11.420;2023-05-22T10:47:28;99538.28;;;25.78;52.17
8585;BME280;7180;52.742;11.420;2023-05-22T10:50:06;99519.66;;;25.70;52.02
8585;BME280;7180;52.742;11.420;2023-05-22T10:52:32;99638.31;;;25.81;53.24
8585;BME280;7180;52.742;11.420;2023-05-22T10:54:59;99494.69;;;25.56;52.15
8585;BME280;7180;52.742;11.420;2023-05-22T10:57:24;99512.38;;;25.77;52.04
8585;BME280;7180;52.742;11.420;2023-05-22T10:59:49;99441.78;;;25.75;51.16
8585;BME280;7180;52.742;11.420;2023-05-22T11:02:25;99428.41;;;25.61;51.13
8585;BME280;7180;52.742;11.420;2023-05-22T11:07:43;99455.00;;;25.83;51.25
8585;BME280;7180;52.742;11.420;2023-05-22T11:10:08;99407.44;;;25.70;50.92
8585;BME280;7180;52.742;11.420;2023-05-22T11:12:33;99460.84;;;25.73;51.55
8585;BME280;7180;52.742;11.420;2023-05-22T11:15:05;99408.63;;;25.81;50.61
8585;BME280;7180;52.742;11.420;2023-05-22T11:17:41;99526.66;;;25.90;51.78
8585;BME280;7180;52.742;11.420;2023-05-22T11:20:25;99428.69;;;25.85;50.88
8585;BME280;7180;52.742;11.420;2023-05-22T11:22:58;99540.72;;;25.92;51.99
8585;BME280;7180;52.742;11.420;2023-05-22T11:25:24;99492.00;;;26.00;51.49
8585;BME280;7180;52.742;11.420;2023-05-22T11:27:52;99508.19;;;26.07;51.37
8585;BME280;7180;52.742;11.420;2023-05-22T11:30:18;99404.88;;;25.82;50.92
8585;BME280;7180;52.742;11.420;2023-05-22T11:32:45;99417.03;;;25.91;50.93
8585;BME280;7180;52.742;11.420;2023-05-22T11:35:16;99408.06;;;26.10;50.43
8585;BME280;7180;52.742;11.420;2023-05-22T11:37:42;99374.03;;;26.15;50.08
8585;BME280;7180;52.742;11.420;2023-05-22T11:40:08;99392.22;;;26.20;50.07
8585;BME280;7180;52.742;11.420;2023-05-22T11:42:34;99350.00;;;26.14;49.61
8585;BME280;7180;52.742;11.420;2023-05-22T11:45:00;99364.09;;;26.16;49.86
8585;BME280;7180;52.742;11.420;2023-05-22T11:47:26;99452.66;;;26.61;50.26
8585;BME280;7180;52.742;11.420;2023-05-22T11:49:53;99273.19;;;26.29;48.96
8585;BME280;7180;52.742;11.420;2023-05-22T11:52:18;99380.31;;;26.58;49.33
8585;BME280;7180;52.742;11.420;2023-05-22T11:54:45;99347.13;;;26.58;49.28
8585;BME280;7180;52.742;11.420;2023-05-22T11:57:12;99375.59;;;26.79;49.36
8585;BME280;7180;52.742;11.420;2023-05-22T11:59:37;99244.22;;;26.25;48.90
8585;BME280;7180;52.742;11.420;2023-05-22T12:02:02;99276.25;;;26.33;48.94
8585;BME280;7180;52.742;11.420;2023-05-22T12:04:28;99277.69;;;26.11;49.30
8585;BME280;7180;52.742;11.420;2023-05-22T12:06:53;99325.63;;;26.27;49.55
8585;BME280;7180;52.742;11.420;2023-05-22T12:09:19;99392.06;;;26.39;49.58
8585;BME280;7180;52.742;11.420;2023-05-22T12:11:48;99461.41;;;26.57;50.67
8585;BME280;7180;52.742;11.420;2023-05-22T12:14:13;99381.25;;;26.46;49.79
8585;BME280;7180;52.742;11.420;2023-05-22T12:16:39;99434.97;;;26.72;50.27
8585;BME280;7180;52.742;11.420;2023-05-22T12:19:09;99410.81;;;26.59;50.25
8585;BME280;7180;52.742;11.420;2023-05-22T12:21:36;99369.66;;;26.70;49.21
8585;BME280;7180;52.742;11.420;2023-05-22T12:24:03;99264.63;;;26.57;48.66
8585;BME280;7180;52.742;11.420;2023-05-22T12:26:29;99318.00;;;26.73;48.46
8585;BME280;7180;52.742;11.420;2023-05-22T12:28:54;99259.66;;;26.54;48.34
8585;BME280;7180;52.742;11.420;2023-05-22T12:31:21;99391.09;;;26.34;50.01
8585;BME280;7180;52.742;11.420;2023-05-22T12:33:47;99430.63;;;26.71;49.94
8585;BME280;7180;52.742;11.420;2023-05-22T12:36:12;99369.66;;;26.88;49.26
8585;BME280;7180;52.742;11.420;2023-05-22T12:38:37;99393.28;;;26.93;49.62
8585;BME280;7180;52.742;11.420;2023-05-22T12:41:06;99281.25;;;26.90;48.31
8585;BME280;7180;52.742;11.420;2023-05-22T12:43:31;99212.31;;;26.83;47.80
8585;BME280;7180;52.742;11.420;2023-05-22T12:45:57;99197.88;;;26.89;47.06
8585;BME280;7180;52.742;11.420;2023-05-22T12:48:22;99167.84;;;26.85;46.80
8585;BME280;7180;52.742;11.420;2023-05-22T12:50:47;99220.56;;;26.63;48.31
8585;BME280;7180;52.742;11.420;2023-05-22T12:53:13;99287.41;;;26.61;48.55
8585;BME280;7180;52.742;11.420;2023-05-22T12:55:39;99300.03;;;26.42;49.18
8585;BME280;7180;52.742;11.420;2023-05-22T12:58:04;99354.13;;;26.65;49.22
8585;BME280;7180;52.742;11.420;2023-05-22T13:00:30;99292.00;;;26.54;49.02
8585;BME280;7180;52.742;11.420;2023-05-22T13:02:56;99294.38;;;26.69;48.59
8585;BME280;7180;52.742;11.420;2023-05-22T13:05:21;99285.47;;;26.86;48.04
8585;BME280;7180;52.742;11.420;2023-05-22T13:07:48;99212.66;;;26.50;47.77
8585;BME280;7180;52.742;11.420;2023-05-22T13:10:13;99276.53;;;26.67;48.16
8585;BME280;7180;52.742;11.420;2023-05-22T13:12:39;99130.91;;;26.38;47.27
8585;BME280;7180;52.742;11.420;2023-05-22T13:15:04;99239.91;;;26.60;48.18
8585;BME280;7180;52.742;11.420;2023-05-22T13:17:30;99182.56;;;26.53;47.40